Time;durP1;ratioP1;P1;durP2;ratioP2;P2;SDS_P1;SDS_P2;PMS_P1;PMS_P2;Temp;Humidity;BMP_temperature;BMP_pressure;BME280_temperature;BME280_humidity;BME280_pressure;Samples;Min_cycle;Max_cycle;Signal;HPM_P1;HPM_P2
2023/07/22 00:00:14;;;;;;;;;;;;;;;25.82;69.81;96655.57;582473;243;65082;-62
2023/07/22 00:02:40;;;;;;;;;;;;;;;25.81;69.82;96660.17;582473;242;68669;-62
2023/07/22 00:05:10;;;;;;;;;;;;;;;25.81;69.41;96653.97;582435;243;68761;-62
2023/07/22 00:07:37;;;;;;;;;;;;;;;25.80;69.24;96657.77;582448;243;64921;-59
2023/07/22 00:10:05;;;;;;;;;;;;;;;25.81;68.94;96645.89;582444;243;68908;-59
2023/07/22 00:12:32;;;;;;;;;;;;;;;25.80;69.90;96642.41;582456;243;68776;-59
2023/07/22 00:15:00;;;;;;;;;;;;;;;25.80;69.35;96645.10;582514;243;62915;-59
2023/07/22 00:17:27;;;;;;;;;;;;;;;25.80;69.77;96647.80;582451;243;68349;-59
2023/07/22 00:19:55;;;;;;;;;;;;;;;25.80;70.62;96722.38;582395;243;66874;-59
2023/07/22 00:22:22;;;;;;;;;;;;;;;25.81;69.96;96823.55;582445;243;65049;-59
2023/07/22 00:24:50;;;;;;;;;;;;;;;25.81;70.14;96732.02;586089;242;66818;-59
2023/07/22 00:27:17;;;;;;;;;;;;;;;25.79;69.27;96807.72;586237;242;68906;-59
2023/07/22 00:29:44;;;;;;;;;;;;;;;25.80;70.50;96832.73;586258;242;65310;-59
2023/07/22 00:32:13;;;;;;;;;;;;;;;25.78;69.37;96818.78;586249;242;68843;-59
2023/07/22 00:34:41;;;;;;;;;;;;;;;25.78;69.10;96824.16;586206;242;70339;-59
2023/07/22 00:37:08;;;;;;;;;;;;;;;25.76;69.30;96824.48;586228;242;63052;-59
2023/07/22 00:39:36;;;;;;;;;;;;;;;25.77;68.20;96831.45;586267;242;66903;-59
2023/07/22 00:42:03;;;;;;;;;;;;;;;25.77;68.02;96842.22;586269;242;66714;-59
2023/07/22 00:44:31;;;;;;;;;;;;;;;25.79;69.48;96844.61;586241;242;65054;-59
2023/07/22 00:46:58;;;;;;;;;;;;;;;25.77;68.55;96841.42;586197;242;68665;-59
2023/07/22 00:49:27;;;;;;;;;;;;;;;25.77;68.71;96836.05;586203;242;69461;-59
2023/07/22 00:51:55;;;;;;;;;;;;;;;25.76;68.98;96840.64;586238;242;64991;-59
2023/07/22 00:54:23;;;;;;;;;;;;;;;25.77;68.97;96844.12;586304;242;68646;-59
2023/07/22 00:56:51;;;;;;;;;;;;;;;25.76;68.73;96834.47;586208;242;66512;-59
2023/07/22 00:59:19;;;;;;;;;;;;;;;25.75;68.51;96841.72;586235;242;63527;-59
2023/07/22 01:01:47;;;;;;;;;;;;;;;25.74;68.56;96842.04;586219;242;66659;-59
2023/07/22 01:04:15;;;;;;;;;;;;;;;25.75;68.45;96835.55;586230;242;66948;-59
2023/07/22 01:06:44;;;;;;;;;;;;;;;25.74;69.14;96832.06;586282;242;65227;-62
2023/07/22 01:09:12;;;;;;;;;;;;;;;25.73;68.52;96833.18;586248;242;66565;-62
2023/07/22 01:11:39;;;;;;;;;;;;;;;25.73;68.34;96838.56;586191;242;66769;-62
2023/07/22 01:14:07;;;;;;;;;;;;;;;25.73;68.61;96843.13;586192;242;65333;-62
2023/07/22 01:16:35;;;;;;;;;;;;;;;25.74;68.19;96848.21;586221;242;66469;-60
2023/07/22 01:19:04;;;;;;;;;;;;;;;25.75;68.86;96854.39;586232;242;66810;-59
2023/07/22 01:21:33;;;;;;;;;;;;;;;25.74;69.55;96864.36;586266;242;65346;-59
2023/07/22 01:24:01;;;;;;;;;;;;;;;25.74;69.21;96868.95;586209;242;69448;-59
2023/07/22 01:26:29;;;;;;;;;;;;;;;25.73;69.01;96878.11;586195;242;68692;-59
2023/07/22 01:29:03;;;;;;;;;;;;;;;25.72;68.27;96884.61;586262;242;63597;-59
2023/07/22 01:31:30;;;;;;;;;;;;;;;25.72;68.25;96889.98;586269;242;68595;-61
2023/07/22 01:33:58;;;;;;;;;;;;;;;25.71;68.17;96891.10;586303;242;68859;-61
2023/07/22 01:36:26;;;;;;;;;;;;;;;25.72;68.11;96888.09;586248;242;63474;-61
2023/07/22 01:38:53;;;;;;;;;;;;;;;25.71;68.26;96897.27;586282;242;66678;-58
2023/07/22 01:41:21;;;;;;;;;;;;;;;25.72;68.29;96908.83;586223;242;68539;-58
2023/07/22 01:43:48;;;;;;;;;;;;;;;25.71;68.58;96909.94;586263;242;65058;-58
2023/07/22 01:46:16;;;;;;;;;;;;;;;25.71;68.11;96901.87;586292;242;68628;-58
2023/07/22 01:48:44;;;;;;;;;;;;;;;25.71;67.19;96909.94;586255;242;68756;-58
2023/07/22 01:51:11;;;;;;;;;;;;;;;25.72;68.62;96909.62;586239;242;65299;-58
2023/07/22 01:53:39;;;;;;;;;;;;;;;25.72;68.64;96906.93;586275;242;69130;-58
2023/07/22 01:56:06;;;;;;;;;;;;;;;25.73;70.21;96908.54;586245;242;68750;-58
2023/07/22 01:58:34;;;;;;;;;;;;;;;25.70;68.46;96895.70;586321;242;65233;-58
2023/07/22 02:01:02;;;;;;;;;;;;;;;25.71;67.88;96894.59;586219;242;68838;-58
2023/07/22 02:03:29;;;;;;;;;;;;;;;25.71;68.51;96891.89;586258;242;69447;-58
2023/07/22 02:06:06;;;;;;;;;;;;;;;25.73;68.88;96896.95;586256;242;64944;-58
2023/07/22 02:08:33;;;;;;;;;;;;;;;25.71;68.75;96897.27;586241;242;69531;-58
2023/07/22 02:11:03;;;;;;;;;;;;;;;25.71;68.54;96902.66;586240;242;67415;-58
2023/07/22 02:13:31;;;;;;;;;;;;;;;25.70;68.56;96903.77;586181;242;65945;-58
2023/07/22 02:15:59;;;;;;;;;;;;;;;25.70;67.67;96895.70;586263;242;69624;-58
2023/07/22 02:18:27;;;;;;;;;;;;;;;25.71;68.91;96894.59;586282;242;68321;-58
2023/07/22 02:20:55;;;;;;;;;;;;;;;25.70;68.22;96887.62;586218;242;63049;-58
2023/07/22 02:23:23;;;;;;;;;;;;;;;25.70;68.79;96884.93;586222;242;66472;-58
2023/07/22 02:25:52;;;;;;;;;;;;;;;25.71;68.42;96891.10;586275;242;68880;-58
2023/07/22 02:28:21;;;;;;;;;;;;;;;25.70;68.29;96882.23;586140;242;65221;-59
2023/07/22 02:30:52;;;;;;;;;;;;;;;25.70;68.27;96882.23;586225;242;68874;-59
2023/07/22 02:33:21;;;;;;;;;;;;;;;25.69;68.00;96884.11;586229;242;69485;-59
2023/07/22 02:35:49;;;;;;;;;;;;;;;25.70;68.33;96887.62;586233;242;65107;-59
2023/07/22 02:38:16;;;;;;;;;;;;;;;25.70;68.41;96887.62;586254;242;66580;-59
2023/07/22 02:40:45;;;;;;;;;;;;;;;25.69;68.05;96880.62;586278;242;69070;-58
2023/07/22 02:43:12;;;;;;;;;;;;;;;25.71;68.60;96885.72;586256;242;63846;-58
2023/07/22 02:45:40;;;;;;;;;;;;;;;25.69;68.38;96886.80;586236;242;68617;-58
2023/07/22 02:48:08;;;;;;;;;;;;;;;25.70;68.38;96884.93;586223;242;66266;-58
2023/07/22 02:50:36;;;;;;;;;;;;;;;25.69;68.55;96892.19;586221;242;65080;-58
2023/07/22 02:53:04;;;;;;;;;;;;;;;25.69;69.07;96888.70;586300;242;69032;-58
2023/07/22 02:55:31;;;;;;;;;;;;;;;25.69;69.03;96896.77;586237;242;68596;-58
2023/07/22 02:57:59;;;;;;;;;;;;;;;25.70;70.12;96884.93;586266;242;62786;-58
2023/07/22 03:00:27;;;;;;;;;;;;;;;25.68;68.82;96876.36;586224;242;68814;-59
2023/07/22 03:03:01;;;;;;;;;;;;;;;25.68;68.30;96877.15;586226;242;68514;-58
2023/07/22 03:05:29;;;;;;;;;;;;;;;25.68;68.35;96873.66;586290;242;62916;-58
2023/07/22 03:07:57;;;;;;;;;;;;;;;25.68;68.95;96863.69;586315;242;66766;-59
2023/07/22 03:10:25;;;;;;;;;;;;;;;25.67;69.15;96855.91;586269;242;66462;-59
2023/07/22 03:12:56;;;;;;;;;;;;;;;25.66;68.10;96855.12;586296;242;62795;-58
2023/07/22 03:15:25;;;;;;;;;;;;;;;25.67;68.12;96847.83;586301;242;66630;-59
2023/07/22 03:17:55;;;;;;;;;;;;;;;25.66;68.27;96852.42;586293;242;66714;-59
2023/07/22 03:20:24;;;;;;;;;;;;;;;25.68;69.56;96854.83;586274;242;65049;-59
2023/07/22 03:22:52;;;;;;;;;;;;;;;25.66;69.07;96844.36;585664;242;68838;-59
2023/07/22 03:25:20;;;;;;;;;;;;;;;25.66;69.27;96846.25;582480;243;69408;-59
2023/07/22 03:27:47;;;;;;;;;;;;;;;25.66;68.40;96848.95;582499;243;65126;-59
2023/07/22 03:30:16;;;;;;;;;;;;;;;25.65;68.05;96840.08;582533;243;68842;-59
2023/07/22 03:32:44;;;;;;;;;;;;;;;25.66;69.22;96846.25;582555;243;68075;-59
2023/07/22 03:35:12;;;;;;;;;;;;;;;25.66;69.12;96854.33;582528;243;63747;-59
2023/07/22 03:37:39;;;;;;;;;;;;;;;25.66;69.24;96854.33;582529;243;66300;-62
2023/07/22 03:40:19;;;;;;;;;;;;;;;25.66;69.25;96859.71;582506;243;68610;-62
2023/07/22 03:42:37;;;;;;;;;;;;;;;25.66;69.28;96867.78;582215;243;64876;-62
2023/07/22 03:45:06;;;;;;;;;;;;;;;25.66;68.84;96865.09;582533;243;66234;-61
2023/07/22 03:47:34;;;;;;;;;;;;;;;25.65;68.06;96858.13;582518;243;66465;-60
2023/07/22 03:50:01;;;;;;;;;;;;;;;25.67;70.29;96863.98;582519;243;65096;-60
2023/07/22 03:52:29;;;;;;;;;;;;;;;25.66;69.27;96863.19;582494;243;68446;-60
2023/07/22 03:54:56;;;;;;;;;;;;;;;25.64;69.12;96860.00;582481;243;68699;-60
2023/07/22 03:57:27;;;;;;;;;;;;;;;25.65;69.26;96866.20;582532;243;65048;-60
2023/07/22 03:59:55;;;;;;;;;;;;;;;25.65;68.82;96872.38;582488;243;68598;-60
2023/07/22 04:02:22;;;;;;;;;;;;;;;25.67;70.06;96869.36;582485;243;68695;-60
2023/07/22 04:04:52;;;;;;;;;;;;;;;25.65;69.36;96877.77;582467;243;62916;-57
2023/07/22 04:07:19;;;;;;;;;;;;;;;25.64;68.69;96880.73;582380;243;68818;-58
2023/07/22 04:09:47;;;;;;;;;;;;;;;25.63;68.94;96889.92;582514;243;66484;-58
2023/07/22 04:12:14;;;;;;;;;;;;;;;25.65;68.91;96893.12;582486;243;65162;-58
2023/07/22 04:14:42;;;;;;;;;;;;;;;25.64;68.94;96891.50;582512;243;68877;-58
2023/07/22 04:17:09;;;;;;;;;;;;;;;25.63;69.27;96884.55;582496;243;68627;-58
2023/07/22 04:19:37;;;;;;;;;;;;;;;25.63;68.67;96889.92;582434;243;66114;-58
2023/07/22 04:22:06;;;;;;;;;;;;;;;25.64;68.95;96899.58;582528;243;68791;-58
2023/07/22 04:24:34;;;;;;;;;;;;;;;25.64;69.13;96902.27;582453;242;66689;-58
2023/07/22 04:27:02;;;;;;;;;;;;;;;25.63;68.61;96901.48;582482;243;62886;-61
2023/07/22 04:29:31;;;;;;;;;;;;;;;25.65;68.76;96898.50;582491;243;69437;-58
2023/07/22 04:31:59;;;;;;;;;;;;;;;25.65;69.72;96903.88;582453;243;66450;-58
2023/07/22 04:34:30;;;;;;;;;;;;;;;25.64;68.71;96913.03;582455;243;65076;-58
2023/07/22 04:36:57;;;;;;;;;;;;;;;25.63;68.55;96912.24;582480;243;68724;-58
2023/07/22 04:39:25;;;;;;;;;;;;;;;25.63;69.05;96908.77;582499;243;66705;-58
2023/07/22 04:41:53;;;;;;;;;;;;;;;25.63;68.80;96906.07;582489;243;65063;-58
2023/07/22 04:44:20;;;;;;;;;;;;;;;25.63;69.30;96911.45;582503;243;66552;-58
2023/07/22 04:46:48;;;;;;;;;;;;;;;25.61;68.40;96911.74;582459;243;66561;-58
2023/07/22 04:49:17;;;;;;;;;;;;;;;25.64;69.21;96913.03;582460;243;65261;-58
2023/07/22 04:51:47;;;;;;;;;;;;;;;25.64;69.67;96919.20;582490;243;68785;-58
2023/07/22 04:54:15;;;;;;;;;;;;;;;25.63;69.05;96914.14;582434;243;69041;-57
2023/07/22 04:56:43;;;;;;;;;;;;;;;25.63;68.72;96923.01;582447;243;65051;-57
2023/07/22 04:59:10;;;;;;;;;;;;;;;25.62;68.95;96929.50;582474;243;68792;-57
2023/07/22 05:01:38;;;;;;;;;;;;;;;25.63;69.38;96930.30;582503;243;66596;-57
2023/07/22 05:04:06;;;;;;;;;;;;;;;25.63;69.53;96927.60;582508;243;65100;-58
2023/07/22 05:06:34;;;;;;;;;;;;;;;25.63;68.90;96935.67;582550;243;68796;-57
2023/07/22 05:09:02;;;;;;;;;;;;;;;25.62;68.67;96928.71;582492;243;66642;-57
2023/07/22 05:11:31;;;;;;;;;;;;;;;25.62;68.29;96916.05;582490;243;65128;-58
2023/07/22 05:13:58;;;;;;;;;;;;;;;25.61;68.75;96917.13;582502;243;66295;-58
2023/07/22 05:16:26;;;;;;;;;;;;;;;25.61;68.51;96919.82;582476;243;66696;-58
2023/07/22 05:18:53;;;;;;;;;;;;;;;25.62;69.04;96920.64;582469;243;64995;-58
2023/07/22 05:21:21;;;;;;;;;;;;;;;25.63;68.54;96923.01;582442;243;69079;-58
2023/07/22 05:23:48;;;;;;;;;;;;;;;25.64;69.17;96937.25;584503;242;68698;-58
2023/07/22 05:26:16;;;;;;;;;;;;;;;25.63;68.32;96930.30;586247;242;63952;-58
2023/07/22 05:28:43;;;;;;;;;;;;;;;25.63;66.76;96935.67;586264;242;68663;-58
2023/07/22 05:31:11;;;;;;;;;;;;;;;25.63;66.17;96944.54;586266;242;68608;-58
2023/07/22 05:33:39;;;;;;;;;;;;;;;25.65;66.71;96952.32;587295;238;63056;-58
2023/07/22 05:36:07;;;;;;;;;;;;;;;25.65;67.63;96946.94;595196;238;68838;-57
2023/07/22 05:38:37;;;;;;;;;;;;;;;25.65;67.41;96952.32;588319;238;67658;-58
2023/07/22 05:43:42;;;;;;;;;;;;;;;25.66;64.83;96951.22;595164;238;40580;-58
2023/07/22 05:46:09;;;;;;;;;;;;;;;25.67;64.70;96958.17;594972;238;69967;-59
2023/07/22 05:48:37;;;;;;;;;;;;;;;25.68;64.70;96965.17;595182;238;65180;-58
2023/07/22 05:51:04;;;;;;;;;;;;;;;25.67;64.73;96959.00;595186;238;68873;-58
2023/07/22 05:53:33;;;;;;;;;;;;;;;25.68;64.65;96957.09;594538;238;68579;-58
2023/07/22 05:56:00;;;;;;;;;;;;;;;25.69;64.65;96956.78;590577;238;63135;-58
2023/07/22 05:58:28;;;;;;;;;;;;;;;25.68;64.51;96974.03;595171;238;66592;-58
2023/07/22 06:00:57;;;;;;;;;;;;;;;25.69;64.40;96964.06;594501;238;47062;-58
2023/07/22 06:03:25;;;;;;;;;;;;;;;25.70;64.65;96960.29;595187;238;65046;-59
2023/07/22 06:05:52;;;;;;;;;;;;;;;25.69;64.52;96959.47;595221;238;68947;-59
2023/07/22 06:08:20;;;;;;;;;;;;;;;25.69;64.49;96959.47;595196;238;69042;-59
2023/07/22 06:10:47;;;;;;;;;;;;;;;25.70;64.34;96962.98;595207;238;65019;-59
2023/07/22 06:13:15;;;;;;;;;;;;;;;25.70;64.60;96949.52;595163;238;68806;-57
2023/07/22 06:15:42;;;;;;;;;;;;;;;25.71;64.62;96948.41;595124;238;68691;-59
2023/07/22 06:18:10;;;;;;;;;;;;;;;25.71;63.86;96959.18;595131;238;65375;-58
2023/07/22 06:20:38;;;;;;;;;;;;;;;25.72;62.17;96963.45;595180;238;66701;-58
2023/07/22 06:23:06;;;;;;;;;;;;;;;25.74;63.75;96971.23;595186;238;68758;-58
2023/07/22 06:25:34;;;;;;;;;;;;;;;25.75;63.04;96980.89;595187;238;62520;-59
2023/07/22 06:28:01;;;;;;;;;;;;;;;25.76;62.82;96977.13;595179;238;68488;-59
2023/07/22 06:30:29;;;;;;;;;;;;;;;25.76;62.82;96975.22;595156;238;68696;-59
2023/07/22 06:32:56;;;;;;;;;;;;;;;25.78;62.78;96978.41;595174;238;62928;-59
2023/07/22 06:35:24;;;;;;;;;;;;;;;25.79;62.76;96989.97;595204;238;66814;-59
2023/07/22 06:37:51;;;;;;;;;;;;;;;25.79;62.63;96989.97;595176;238;66554;-59
2023/07/22 06:40:19;;;;;;;;;;;;;;;25.79;62.00;96988.07;595197;238;63993;-59
2023/07/22 06:42:46;;;;;;;;;;;;;;;25.79;62.17;96981.89;588768;238;68885;-58
2023/07/22 06:45:14;;;;;;;;;;;;;;;25.80;62.25;96988.86;584978;242;66805;-58
2023/07/22 06:47:41;;;;;;;;;;;;;;;25.80;62.04;96986.96;584910;242;65084;-59
2023/07/22 06:50:09;;;;;;;;;;;;;;;25.81;62.32;96996.64;584961;242;66732;-59
2023/07/22 06:52:37;;;;;;;;;;;;;;;25.81;62.43;97002.03;584945;242;68645;-59
2023/07/22 06:55:05;;;;;;;;;;;;;;;25.81;62.37;97004.72;584943;242;62718;-59
2023/07/22 06:57:33;;;;;;;;;;;;;;;25.83;61.50;97001.71;584980;242;68953;-58
2023/07/22 07:00:00;;;;;;;;;;;;;;;25.84;62.36;97004.14;584912;242;68554;-59
2023/07/22 07:02:28;;;;;;;;;;;;;;;25.84;62.13;97006.05;584945;242;65090;-59
2023/07/22 07:04:57;;;;;;;;;;;;;;;25.84;61.80;97006.84;584929;242;66723;-59
2023/07/22 07:07:24;;;;;;;;;;;;;;;25.85;61.58;97008.42;584923;239;68684;-59
2023/07/22 07:09:52;;;;;;;;;;;;;;;25.86;62.30;97012.72;584944;242;63180;-59
2023/07/22 07:12:19;;;;;;;;;;;;;;;25.85;62.28;97011.11;584970;242;68792;-59
2023/07/22 07:14:48;;;;;;;;;;;;;;;25.85;62.41;97013.80;584956;240;66454;-59
2023/07/22 07:17:16;;;;;;;;;;;;;;;25.85;62.09;97002.24;584924;239;63497;-60
2023/07/22 07:19:43;;;;;;;;;;;;;;;25.85;61.93;97003.03;584977;242;68819;-58
2023/07/22 07:22:11;;;;;;;;;;;;;;;25.86;61.57;97007.34;584914;242;66928;-58
2023/07/22 07:24:38;;;;;;;;;;;;;;;25.87;61.61;96997.36;584943;242;64994;-58
2023/07/22 07:27:06;;;;;;;;;;;;;;;25.88;61.40;97007.81;584919;242;68822;-58
2023/07/22 07:29:34;;;;;;;;;;;;;;;25.87;61.26;97006.23;584953;242;68727;-58
2023/07/22 07:32:01;;;;;;;;;;;;;;;25.89;61.42;97000.52;584938;242;64912;-58
2023/07/22 07:34:28;;;;;;;;;;;;;;;25.89;61.19;96990.58;584919;242;66683;-58
2023/07/22 07:36:56;;;;;;;;;;;;;;;25.89;61.09;96990.58;585010;242;68555;-58
2023/07/22 07:39:23;;;;;;;;;;;;;;;25.90;61.52;96996.75;584965;242;65107;-58
2023/07/22 07:41:51;;;;;;;;;;;;;;;25.90;61.27;96997.54;584921;239;68307;-58
2023/07/22 07:44:19;;;;;;;;;;;;;;;25.90;61.28;96980.59;584957;242;66462;-57
2023/07/22 07:46:46;;;;;;;;;;;;;;;25.91;61.29;96982.97;584946;242;65062;-58
2023/07/22 07:49:14;;;;;;;;;;;;;;;25.90;61.61;96984.08;577781;241;68811;-58
2023/07/22 07:51:42;;;;;;;;;;;;;;;25.92;61.22;96981.09;584980;242;68622;-58
2023/07/22 07:54:10;;;;;;;;;;;;;;;25.93;61.16;96973.81;584908;242;62757;-58
2023/07/22 07:56:39;;;;;;;;;;;;;;;25.93;61.20;96968.42;584904;242;45806;-58
2023/07/22 07:59:09;;;;;;;;;;;;;;;25.93;61.07;96968.42;584941;242;68413;-58
2023/07/22 08:01:41;;;;;;;;;;;;;;;25.95;60.82;96963.54;584980;239;63124;-58
2023/07/22 08:04:05;;;;;;;;;;;;;;;25.94;60.64;96953.85;584828;241;66787;-59
2023/07/22 08:06:33;;;;;;;;;;;;;;;25.94;60.86;96943.08;584874;242;66366;-59
2023/07/22 08:09:00;;;;;;;;;;;;;;;25.93;60.69;96944.98;584900;242;65583;-59
2023/07/22 08:11:28;;;;;;;;;;;;;;;25.94;60.63;96932.31;584890;242;68763;-59
2023/07/22 08:13:56;;;;;;;;;;;;;;;25.95;60.71;96933.92;584875;242;66612;-58
2023/07/22 08:16:24;;;;;;;;;;;;;;;25.94;60.58;96922.33;584952;242;62757;-58
2023/07/22 08:18:52;;;;;;;;;;;;;;;25.95;60.99;96923.16;584838;242;68876;-58
2023/07/22 08:21:19;;;;;;;;;;;;;;;25.96;60.79;96920.14;584854;242;66725;-58
2023/07/22 08:23:47;;;;;;;;;;;;;;;25.96;60.66;96919.34;584943;242;65220;-58
2023/07/22 08:26:17;;;;;;;;;;;;;;;25.96;60.77;96919.34;584902;242;66635;-58
2023/07/22 08:28:44;;;;;;;;;;;;;;;25.97;61.07;96921.72;584942;242;65402;-58
2023/07/22 08:31:12;;;;;;;;;;;;;;;25.96;60.67;96917.45;584914;242;63922;-58
2023/07/22 08:33:39;;;;;;;;;;;;;;;25.96;60.72;96917.45;584887;242;66719;-58
2023/07/22 08:36:07;;;;;;;;;;;;;;;25.97;60.80;96912.85;584923;242;66900;-58
2023/07/22 08:38:34;;;;;;;;;;;;;;;25.97;61.03;96920.92;584931;242;62924;-58
2023/07/22 08:41:02;;;;;;;;;;;;;;;25.97;61.25;96915.55;584988;242;66601;-58
2023/07/22 08:43:30;;;;;;;;;;;;;;;25.97;61.07;96905.56;584925;237;66776;-58
2023/07/22 08:45:59;;;;;;;;;;;;;;;25.98;60.69;96892.92;584949;242;65168;-58
2023/07/22 08:48:27;;;;;;;;;;;;;;;25.98;60.90;96892.92;584899;242;68828;-58
2023/07/22 08:50:57;;;;;;;;;;;;;;;25.99;60.94;96892.59;584949;239;68709;-58
2023/07/22 08:53:25;;;;;;;;;;;;;;;25.97;60.95;96888.62;585015;242;62927;-58
2023/07/22 08:55:54;;;;;;;;;;;;;;;25.97;60.73;96883.23;585000;242;68528;-58
2023/07/22 08:58:22;;;;;;;;;;;;;;;25.97;60.81;96881.33;584947;242;66591;-58
2023/07/22 09:00:49;;;;;;;;;;;;;;;25.98;60.88;96874.07;584845;242;62956;-58
2023/07/22 09:03:18;;;;;;;;;;;;;;;25.99;60.98;96871.05;584889;242;69064;-58
2023/07/22 09:05:45;;;;;;;;;;;;;;;26.00;60.77;96855.69;584949;242;68809;-58
2023/07/22 09:08:13;;;;;;;;;;;;;;;26.01;60.64;96846.53;584976;242;65246;-58
2023/07/22 09:10:41;;;;;;;;;;;;;;;26.01;60.75;96843.84;584921;242;68818;-58
2023/07/22 09:13:08;;;;;;;;;;;;;;;26.01;60.65;96854.61;584951;242;68658;-57
2023/07/22 09:15:37;;;;;;;;;;;;;;;26.01;60.59;96841.93;584938;242;65160;-58
2023/07/22 09:18:05;;;;;;;;;;;;;;;26.02;60.80;96837.34;584960;242;66638;-58
2023/07/22 09:20:32;;;;;;;;;;;;;;;26.03;60.87;96830.87;584976;242;68780;-58
2023/07/22 09:23:00;;;;;;;;;;;;;;;26.01;60.77;96823.08;584945;242;65164;-58
2023/07/22 09:25:28;;;;;;;;;;;;;;;26.02;61.12;96816.59;584911;242;68682;-58
2023/07/22 09:27:57;;;;;;;;;;;;;;;26.02;60.87;96818.48;584888;242;68665;-57
2023/07/22 09:30:29;;;;;;;;;;;;;;;26.03;61.06;96818.19;584946;242;63832;-58
2023/07/22 09:32:59;;;;;;;;;;;;;;;26.01;61.06;96814.22;584998;242;66619;-58
2023/07/22 09:35:28;;;;;;;;;;;;;;;26.02;61.12;96810.41;584783;240;68550;-58
2023/07/22 09:37:56;;;;;;;;;;;;;;;26.03;61.19;96807.42;584928;239;64943;-58
2023/07/22 09:40:25;;;;;;;;;;;;;;;26.04;61.20;96816.29;584887;242;68854;-58
2023/07/22 09:42:57;;;;;;;;;;;;;;;26.05;61.18;96804.41;584902;236;68514;-58
2023/07/22 09:45:25;;;;;;;;;;;;;;;26.05;61.17;96804.41;584944;242;62927;-57
2023/07/22 09:47:53;;;;;;;;;;;;;;;26.05;60.91;96799.02;585006;242;66743;-57
2023/07/22 09:50:22;;;;;;;;;;;;;;;26.05;61.03;96794.42;584921;242;66873;-57
2023/07/22 09:52:50;;;;;;;;;;;;;;;26.05;61.14;96788.25;584922;242;65064;-58
2023/07/22 09:55:19;;;;;;;;;;;;;;;26.06;60.94;96795.23;584939;242;68840;-58
2023/07/22 09:57:48;;;;;;;;;;;;;;;26.05;60.86;96797.11;584784;240;68775;-58
2023/07/22 10:00:19;;;;;;;;;;;;;;;26.07;61.09;96794.13;584992;242;65043;-58
2023/07/22 10:02:47;;;;;;;;;;;;;;;26.07;61.00;96791.43;585034;239;41552;-58
2023/07/22 10:05:16;;;;;;;;;;;;;;;26.07;61.22;96789.53;584916;242;66680;-58
2023/07/22 10:07:45;;;;;;;;;;;;;;;26.08;61.26;96788.44;584957;242;65137;-58
2023/07/22 10:10:13;;;;;;;;;;;;;;;26.07;61.38;96791.43;584948;242;68367;-58
2023/07/22 10:12:42;;;;;;;;;;;;;;;26.06;61.17;96781.77;584991;242;68723;-58
2023/07/22 10:15:11;;;;;;;;;;;;;;;26.06;61.79;96784.47;584948;242;63051;-58
2023/07/22 10:17:39;;;;;;;;;;;;;;;26.08;61.50;96795.70;584948;242;69036;-58
2023/07/22 10:20:14;;;;;;;;;;;;;;;26.07;61.81;96797.61;584941;242;68810;-58
2023/07/22 10:22:38;;;;;;;;;;;;;;;26.09;61.56;96795.41;581968;240;67641;-58
2023/07/22 10:25:07;;;;;;;;;;;;;;;26.09;61.80;96806.18;581416;243;68799;-58
2023/07/22 10:27:39;;;;;;;;;;;;;;;26.11;61.78;96808.58;581652;242;48377;-58
2023/07/22 10:30:06;;;;;;;;;;;;;;;26.12;61.60;96810.94;581573;243;63527;-58
2023/07/22 10:32:36;;;;;;;;;;;;;;;26.11;61.55;96809.36;581590;243;68841;-58
2023/07/22 10:35:04;;;;;;;;;;;;;;;26.12;61.70;96807.46;581262;242;66733;-58
2023/07/22 10:37:32;;;;;;;;;;;;;;;26.10;61.56;96805.06;581309;243;65083;-58
2023/07/22 10:40:01;;;;;;;;;;;;;;;26.12;61.60;96810.16;581788;241;68804;-58
2023/07/22 10:42:30;;;;;;;;;;;;;;;26.12;61.63;96804.77;586432;239;68728;-58
2023/07/22 10:44:59;;;;;;;;;;;;;;;26.12;61.65;96807.46;591702;239;65207;-58
2023/07/22 10:47:34;;;;;;;;;;;;;;;26.12;61.77;96812.84;592160;239;69013;-57
2023/07/22 10:50:09;;;;;;;;;;;;;;;26.12;62.07;96818.23;591873;239;68663;-57
2023/07/22 10:52:39;;;;;;;;;;;;;;;26.13;61.69;96814.42;591958;239;62969;-58
2023/07/22 10:55:08;;;;;;;;;;;;;;;26.13;61.72;96822.50;592099;239;66333;-58
2023/07/22 10:57:37;;;;;;;;;;;;;;;26.11;61.86;96811.27;588951;238;66470;-59
2023/07/22 11:00:07;;;;;;;;;;;;;;;26.12;61.79;96816.33;588688;240;62861;-59
2023/07/22 11:02:35;;;;;;;;;;;;;;;26.12;61.82;96818.23;588534;241;68999;-58
2023/07/22 11:05:05;;;;;;;;;;;;;;;26.13;61.98;96814.42;588910;241;69005;-59
2023/07/22 11:07:33;;;;;;;;;;;;;;;26.13;61.85;96822.50;588944;241;62510;-59
2023/07/22 11:10:02;;;;;;;;;;;;;;;26.13;61.87;96809.83;588928;241;68938;-59
2023/07/22 11:12:29;;;;;;;;;;;;;;;26.14;62.14;96818.73;588627;240;68765;-59
2023/07/22 11:15:00;;;;;;;;;;;;;;;26.16;61.78;96811.11;588931;241;65421;-58
2023/07/22 11:17:31;;;;;;;;;;;;;;;26.17;61.72;96814.63;588458;240;68836;-59
2023/07/22 11:20:00;;;;;;;;;;;;;;;26.17;61.66;96820.80;588981;241;68759;-59
2023/07/22 11:22:32;;;;;;;;;;;;;;;26.18;61.61;96819.68;588922;241;65080;-58
2023/07/22 11:25:00;;;;;;;;;;;;;;;26.15;61.73;96806.84;588790;240;68365;-59
2023/07/22 11:27:27;;;;;;;;;;;;;;;26.17;61.48;96809.23;588934;241;66735;-59
2023/07/22 11:29:56;;;;;;;;;;;;;;;26.16;61.45;96805.72;588909;241;65073;-59
2023/07/22 11:32:24;;;;;;;;;;;;;;;26.16;61.72;96811.11;588907;241;69004;-58
2023/07/22 11:34:57;;;;;;;;;;;;;;;26.16;61.53;96813.80;588952;241;66681;-58
2023/07/22 11:37:21;;;;;;;;;;;;;;;26.16;61.59;96813.80;588790;240;62865;-59
2023/07/22 11:39:51;;;;;;;;;;;;;;;26.15;61.58;96814.92;588915;241;66602;-59
2023/07/22 11:42:18;;;;;;;;;;;;;;;26.19;61.68;96820.47;587182;239;68681;-59
2023/07/22 11:44:46;;;;;;;;;;;;;;;26.18;61.65;96818.89;584967;242;65017;-59
2023/07/22 11:47:14;;;;;;;;;;;;;;;26.17;61.63;96801.16;585037;242;66414;-59
2023/07/22 11:49:43;;;;;;;;;;;;;;;26.16;61.69;96811.11;584942;242;66545;-59
2023/07/22 11:52:11;;;;;;;;;;;;;;;26.17;61.66;96807.33;584957;242;65155;-59
2023/07/22 11:54:40;;;;;;;;;;;;;;;26.17;61.65;96807.33;584933;242;66204;-59
2023/07/22 11:57:18;;;;;;;;;;;;;;;26.19;61.68;96807.00;584966;242;68473;-59
2023/07/22 11:59:50;;;;;;;;;;;;;;;26.17;61.57;96807.33;584954;242;65199;-59
2023/07/22 12:02:19;;;;;;;;;;;;;;;26.20;61.54;96816.69;585016;242;68483;-58
2023/07/22 12:05:00;;;;;;;;;;;;;;;26.20;61.68;96814.00;584785;240;68472;-59
2023/07/22 12:07:35;;;;;;;;;;;;;;;26.17;61.56;96810.02;584944;242;62952;-59
2023/07/22 12:10:05;;;;;;;;;;;;;;;26.19;61.79;96799.74;584949;242;66318;-58
2023/07/22 12:12:41;;;;;;;;;;;;;;;26.20;61.58;96806.70;584816;240;68566;-59
2023/07/22 12:15:17;;;;;;;;;;;;;;;26.22;61.51;96803.69;584823;242;64193;-57
2023/07/22 12:17:55;;;;;;;;;;;;;;;26.19;61.38;96802.44;584952;242;68686;-58
2023/07/22 12:20:29;;;;;;;;;;;;;;;26.21;61.39;96818.27;584943;242;69040;-58
2023/07/22 12:22:58;;;;;;;;;;;;;;;26.20;61.46;96812.09;584895;242;65143;-57
2023/07/22 12:25:25;;;;;;;;;;;;;;;26.18;61.22;96806.22;584929;242;68907;-58
2023/07/22 12:27:53;;;;;;;;;;;;;;;26.19;61.20;96810.52;584937;242;68801;-57
2023/07/22 12:30:21;;;;;;;;;;;;;;;26.22;61.11;96806.38;584927;242;65063;-57
2023/07/22 12:32:48;;;;;;;;;;;;;;;26.22;61.18;96798.30;584995;239;68829;-57
2023/07/22 12:35:16;;;;;;;;;;;;;;;26.22;61.11;96799.12;584908;242;68824;-57
2023/07/22 12:37:44;;;;;;;;;;;;;;;26.20;61.34;96787.86;584963;239;63142;-57
2023/07/22 12:40:12;;;;;;;;;;;;;;;26.21;60.94;96791.34;584948;242;66319;-57
2023/07/22 12:42:40;;;;;;;;;;;;;;;26.21;60.56;96784.05;587129;240;68770;-57
2023/07/22 12:45:08;;;;;;;;;;;;;;;26.25;60.30;96778.85;588971;241;62856;-57
2023/07/22 12:47:36;;;;;;;;;;;;;;;26.23;60.53;96770.28;588909;241;69119;-57
2023/07/22 12:50:04;;;;;;;;;;;;;;;26.24;60.35;96786.11;588893;241;68668;-57
2023/07/22 12:52:31;;;;;;;;;;;;;;;26.24;60.38;96778.03;588904;241;65103;-57
2023/07/22 12:54:59;;;;;;;;;;;;;;;26.21;60.62;96767.88;588923;241;68662;-57